sensor_id;sensor_type;location;lat;lon;timestamp;pressure;altitude;pressure_sealevel;temperature;humidity
55187;BME280;55457;52.002;5.464;2023-07-13T00:00:18;101178.34;;;24.70;48.50
55187;BME280;55457;52.002;5.464;2023-07-13T00:02:43;101176.69;;;24.69;48.65
55187;BME280;55457;52.002;5.464;2023-07-13T00:05:09;101174.78;;;24.70;48.65
55187;BME280;55457;52.002;5.464;2023-07-13T00:07:35;101167.69;;;24.69;48.38
55187;BME280;55457;52.002;5.464;2023-07-13T00:10:01;101172.31;;;24.68;48.37
55187;BME280;55457;52.002;5.464;2023-07-13T00:12:32;101166.84;;;24.68;48.45
55187;BME280;55457;52.002;5.464;2023-07-13T00:15:00;101170.94;;;24.66;48.39
55187;BME280;55457;52.002;5.464;2023-07-13T00:17:27;101175.31;;;24.67;48.24
55187;BME280;55457;52.002;5.464;2023-07-13T00:19:54;101175.31;;;24.67;48.39
55187;BME280;55457;52.002;5.464;2023-07-13T00:22:21;101173.66;;;24.66;48.31
55187;BME280;55457;52.002;5.464;2023-07-13T00:24:47;101174.50;;;24.66;48.30
55187;BME280;55457;52.002;5.464;2023-07-13T00:27:13;101174.75;;;24.65;48.38
55187;BME280;55457;52.002;5.464;2023-07-13T00:29:38;101179.13;;;24.66;48.39
55187;BME280;55457;52.002;5.464;2023-07-13T00:32:05;101182.66;;;24.66;48.31
55187;BME280;55457;52.002;5.464;2023-07-13T00:34:31;101167.41;;;24.65;48.40
55187;BME280;55457;52.002;5.464;2023-07-13T00:36:57;101177.50;;;24.65;48.45
55187;BME280;55457;52.002;5.464;2023-07-13T00:39:22;101172.84;;;24.65;48.49
55187;BME280;55457;52.002;5.464;2023-07-13T00:41:48;101166.59;;;24.65;48.72
55187;BME280;55457;52.002;5.464;2023-07-13T00:44:14;101169.31;;;24.65;48.75
55187;BME280;55457;52.002;5.464;2023-07-13T00:46:40;101172.84;;;24.65;48.61
55187;BME280;55457;52.002;5.464;2023-07-13T00:49:09;101181.03;;;24.65;48.72
55187;BME280;55457;52.002;5.464;2023-07-13T00:51:46;101179.41;;;24.64;48.86
55187;BME280;55457;52.002;5.464;2023-07-13T00:54:18;101183.75;;;24.65;48.79
55187;BME280;55457;52.002;5.464;2023-07-13T00:56:45;101178.31;;;24.65;48.78
55187;BME280;55457;52.002;5.464;2023-07-13T00:59:13;101177.22;;;24.66;48.92
55187;BME280;55457;52.002;5.464;2023-07-13T01:01:40;101172.03;;;24.65;48.88
55187;BME280;55457;52.002;5.464;2023-07-13T01:04:05;101174.75;;;24.65;48.58
55187;BME280;55457;52.002;5.464;2023-07-13T01:06:35;101176.66;;;24.64;48.72
55187;BME280;55457;52.002;5.464;2023-07-13T01:09:01;101176.66;;;24.64;48.75
55187;BME280;55457;52.002;5.464;2023-07-13T01:11:27;101169.56;;;24.63;48.80
55187;BME280;55457;52.002;5.464;2023-07-13T01:13:52;101170.13;;;24.65;48.73
55187;BME280;55457;52.002;5.464;2023-07-13T01:16:31;101184.56;;;24.66;48.87
55187;BME280;55457;52.002;5.464;2023-07-13T01:18:57;101190.03;;;24.66;48.79
55187;BME280;55457;52.002;5.464;2023-07-13T01:21:24;101199.56;;;24.68;48.82
55187;BME280;55457;52.002;5.464;2023-07-13T01:23:50;101195.78;;;24.69;48.81
55187;BME280;55457;52.002;5.464;2023-07-13T01:26:16;101191.97;;;24.70;48.68
55187;BME280;55457;52.002;5.464;2023-07-13T01:28:41;101190.31;;;24.69;48.74
55187;BME280;55457;52.002;5.464;2023-07-13T01:31:08;101188.41;;;24.70;48.65
55187;BME280;55457;52.002;5.464;2023-07-13T01:33:36;101188.41;;;24.70;48.74
55187;BME280;55457;52.002;5.464;2023-07-13T01:36:01;101191.97;;;24.70;48.69
55187;BME280;55457;52.002;5.464;2023-07-13T01:38:27;101188.41;;;24.70;48.71
55187;BME280;55457;52.002;5.464;2023-07-13T01:40:53;101185.41;;;24.71;48.67
55187;BME280;55457;52.002;5.464;2023-07-13T01:43:19;101181.88;;;24.71;48.44
55187;BME280;55457;52.002;5.464;2023-07-13T01:45:45;101179.97;;;24.71;48.43
55187;BME280;55457;52.002;5.464;2023-07-13T01:48:11;101187.06;;;24.72;48.35
55187;BME280;55457;52.002;5.464;2023-07-13T01:50:36;101188.97;;;24.72;48.42
55187;BME280;55457;52.002;5.464;2023-07-13T01:53:02;101191.41;;;24.73;48.45
55187;BME280;55457;52.002;5.464;2023-07-13T01:55:28;101191.69;;;24.72;48.46
55187;BME280;55457;52.002;5.464;2023-07-13T01:57:55;101192.50;;;24.72;48.27
55187;BME280;55457;52.002;5.464;2023-07-13T02:00:20;101189.78;;;24.72;48.49
55187;BME280;55457;52.002;5.464;2023-07-13T02:02:46;101192.50;;;24.72;48.34
55187;BME280;55457;52.002;5.464;2023-07-13T02:05:12;101188.16;;;24.71;48.54
55187;BME280;55457;52.002;5.464;2023-07-13T02:07:38;101193.59;;;24.71;48.10
55187;BME280;55457;52.002;5.464;2023-07-13T02:10:05;101196.31;;;24.71;48.55
55187;BME280;55457;52.002;5.464;2023-07-13T02:12:31;101199.88;;;24.72;48.34
55187;BME280;55457;52.002;5.464;2023-07-13T02:14:57;101202.59;;;24.72;48.28
55187;BME280;55457;52.002;5.464;2023-07-13T02:17:22;101198.22;;;24.71;48.47
55187;BME280;55457;52.002;5.464;2023-07-13T02:19:47;101208.03;;;24.72;48.40
55187;BME280;55457;52.002;5.464;2023-07-13T02:22:13;101202.59;;;24.72;48.40
55187;BME280;55457;52.002;5.464;2023-07-13T02:24:39;101202.88;;;24.70;48.32
55187;BME280;55457;52.002;5.464;2023-07-13T02:27:05;101197.41;;;24.70;48.12
55187;BME280;55457;52.002;5.464;2023-07-13T02:29:30;101197.41;;;24.70;48.32
55187;BME280;55457;52.002;5.464;2023-07-13T02:31:56;101197.41;;;24.70;48.36
55187;BME280;55457;52.002;5.464;2023-07-13T02:34:21;101199.31;;;24.70;48.17
55187;BME280;55457;52.002;5.464;2023-07-13T02:36:46;101203.09;;;24.69;48.21
55187;BME280;55457;52.002;5.464;2023-07-13T02:39:13;101204.19;;;24.68;48.13
55187;BME280;55457;52.002;5.464;2023-07-13T02:41:38;101207.19;;;24.66;48.32
55187;BME280;55457;52.002;5.464;2023-07-13T02:44:04;101198.19;;;24.66;48.26
55187;BME280;55457;52.002;5.464;2023-07-13T02:46:34;101200.09;;;24.65;48.33
55187;BME280;55457;52.002;5.464;2023-07-13T02:49:00;101200.34;;;24.64;48.36
55187;BME280;55457;52.002;5.464;2023-07-13T02:51:26;101199.28;;;24.65;48.41
55187;BME280;55457;52.002;5.464;2023-07-13T02:53:51;101203.66;;;24.66;48.31
55187;BME280;55457;52.002;5.464;2023-07-13T02:56:19;101209.09;;;24.66;48.57
55187;BME280;55457;52.002;5.464;2023-07-13T02:58:44;101200.09;;;24.65;48.53
55187;BME280;55457;52.002;5.464;2023-07-13T03:01:11;101203.94;;;24.64;48.39
55187;BME280;55457;52.002;5.464;2023-07-13T03:03:37;101211.00;;;24.65;48.34
55187;BME280;55457;52.002;5.464;2023-07-13T03:06:04;101212.66;;;24.66;48.45
55187;BME280;55457;52.002;5.464;2023-07-13T03:08:31;101209.09;;;24.66;48.51
55187;BME280;55457;52.002;5.464;2023-07-13T03:11:05;101212.66;;;24.66;48.51
55187;BME280;55457;52.002;5.464;2023-07-13T03:13:31;101214.81;;;24.64;48.49
55187;BME280;55457;52.002;5.464;2023-07-13T03:15:56;101205.56;;;24.65;48.51
55187;BME280;55457;52.002;5.464;2023-07-13T03:18:22;101211.00;;;24.65;48.33
55187;BME280;55457;52.002;5.464;2023-07-13T03:20:50;101219.19;;;24.65;48.48
55187;BME280;55457;52.002;5.464;2023-07-13T03:23:16;101213.72;;;24.65;48.64
55187;BME280;55457;52.002;5.464;2023-07-13T03:25:42;101221.91;;;24.65;48.61
55187;BME280;55457;52.002;5.464;2023-07-13T03:28:07;101217.53;;;24.64;48.48
55187;BME280;55457;52.002;5.464;2023-07-13T03:30:33;101220.28;;;24.64;48.67
55187;BME280;55457;52.002;5.464;2023-07-13T03:32:58;101227.34;;;24.65;48.52
55187;BME280;55457;52.002;5.464;2023-07-13T03:35:23;101219.44;;;24.64;48.60
55187;BME280;55457;52.002;5.464;2023-07-13T03:37:49;101226.53;;;24.65;48.48
55187;BME280;55457;52.002;5.464;2023-07-13T03:40:15;101229.50;;;24.63;48.82
55187;BME280;55457;52.002;5.464;2023-07-13T03:42:40;101224.06;;;24.63;48.67
55187;BME280;55457;52.002;5.464;2023-07-13T03:45:06;101233.31;;;24.62;48.63
55187;BME280;55457;52.002;5.464;2023-07-13T03:47:32;101229.50;;;24.63;48.81
55187;BME280;55457;52.002;5.464;2023-07-13T03:49:57;101233.31;;;24.62;48.67
55187;BME280;55457;52.002;5.464;2023-07-13T03:52:22;101236.03;;;24.62;48.75
55187;BME280;55457;52.002;5.464;2023-07-13T03:54:48;101234.13;;;24.63;48.81
55187;BME280;55457;52.002;5.464;2023-07-13T03:57:13;101245.84;;;24.63;48.85
55187;BME280;55457;52.002;5.464;2023-07-13T03:59:39;101250.50;;;24.63;48.92
55187;BME280;55457;52.002;5.464;2023-07-13T04:02:04;101250.75;;;24.61;48.77
55187;BME280;55457;52.002;5.464;2023-07-13T04:04:30;101248.84;;;24.62;48.83
55187;BME280;55457;52.002;5.464;2023-07-13T04:06:57;101249.94;;;24.61;48.69
55187;BME280;55457;52.002;5.464;2023-07-13T04:09:24;101251.84;;;24.60;48.73
55187;BME280;55457;52.002;5.464;2023-07-13T04:11:49;101251.03;;;24.60;48.95
55187;BME280;55457;52.002;5.464;2023-07-13T04:14:15;101247.22;;;24.61;48.88
55187;BME280;55457;52.002;5.464;2023-07-13T04:16:40;101253.50;;;24.61;48.90
55187;BME280;55457;52.002;5.464;2023-07-13T04:19:07;101261.13;;;24.59;48.83
55187;BME280;55457;52.002;5.464;2023-07-13T04:21:33;101267.38;;;24.60;49.04
55187;BME280;55457;52.002;5.464;2023-07-13T04:23:58;101269.84;;;24.61;48.77
55187;BME280;55457;52.002;5.464;2023-07-13T04:26:24;101266.56;;;24.59;48.79
55187;BME280;55457;52.002;5.464;2023-07-13T04:28:51;101272.00;;;24.59;49.00
55187;BME280;55457;52.002;5.464;2023-07-13T04:31:17;101272.84;;;24.60;49.00
55187;BME280;55457;52.002;5.464;2023-07-13T04:33:42;101270.94;;;24.60;49.05
55187;BME280;55457;52.002;5.464;2023-07-13T04:36:08;101272.00;;;24.59;48.96
55187;BME280;55457;52.002;5.464;2023-07-13T04:38:35;101273.06;;;24.58;49.03
55187;BME280;55457;52.002;5.464;2023-07-13T04:41:03;101272.84;;;24.60;49.09
55187;BME280;55457;52.002;5.464;2023-07-13T04:43:29;101274.75;;;24.59;49.11
55187;BME280;55457;52.002;5.464;2023-07-13T04:45:55;101272.00;;;24.59;48.87
55187;BME280;55457;52.002;5.464;2023-07-13T04:48:21;101283.97;;;24.58;49.09
55187;BME280;55457;52.002;5.464;2023-07-13T04:50:47;101281.25;;;24.58;49.14
55187;BME280;55457;52.002;5.464;2023-07-13T04:53:12;101274.75;;;24.59;49.09
55187;BME280;55457;52.002;5.464;2023-07-13T04:55:38;101276.63;;;24.59;49.10
55187;BME280;55457;52.002;5.464;2023-07-13T04:58:04;101275.78;;;24.58;49.14
55187;BME280;55457;52.002;5.464;2023-07-13T05:00:30;101275.78;;;24.58;49.18
55187;BME280;55457;52.002;5.464;2023-07-13T05:02:57;101278.53;;;24.58;49.06
55187;BME280;55457;52.002;5.464;2023-07-13T05:05:24;101279.59;;;24.57;49.43
55187;BME280;55457;52.002;5.464;2023-07-13T05:07:51;101287.78;;;24.57;49.29
55187;BME280;55457;52.002;5.464;2023-07-13T05:10:17;101283.41;;;24.56;49.19
55187;BME280;55457;52.002;5.464;2023-07-13T05:12:43;101285.88;;;24.58;49.24
55187;BME280;55457;52.002;5.464;2023-07-13T05:15:09;101288.88;;;24.56;49.56
55187;BME280;55457;52.002;5.464;2023-07-13T05:17:35;101289.69;;;24.57;49.35
55187;BME280;55457;52.002;5.464;2023-07-13T05:20:00;101293.50;;;24.56;49.65
55187;BME280;55457;52.002;5.464;2023-07-13T05:22:26;101291.56;;;24.51;49.66
55187;BME280;55457;52.002;5.464;2023-07-13T05:24:51;101292.38;;;24.52;49.66
55187;BME280;55457;52.002;5.464;2023-07-13T05:27:17;101291.56;;;24.51;49.69
55187;BME280;55457;52.002;5.464;2023-07-13T05:29:42;101300.81;;;24.50;49.68
55187;BME280;55457;52.002;5.464;2023-07-13T05:32:08;101300.81;;;24.50;49.86
55187;BME280;55457;52.002;5.464;2023-07-13T05:34:33;101300.00;;;24.50;49.75
55187;BME280;55457;52.002;5.464;2023-07-13T05:36:58;101297.50;;;24.48;50.04
55187;BME280;55457;52.002;5.464;2023-07-13T05:39:24;101297.50;;;24.48;49.96
55187;BME280;55457;52.002;5.464;2023-07-13T05:41:51;101311.94;;;24.43;50.39
55187;BME280;55457;52.002;5.464;2023-07-13T05:44:16;101298.81;;;24.40;50.43
55187;BME280;55457;52.002;5.464;2023-07-13T05:46:42;101309.47;;;24.42;50.52
55187;BME280;55457;52.002;5.464;2023-07-13T05:49:07;101304.00;;;24.42;50.40
55187;BME280;55457;52.002;5.464;2023-07-13T05:51:33;101313.81;;;24.43;50.53
55187;BME280;55457;52.002;5.464;2023-07-13T05:53:58;101323.91;;;24.42;50.81
55187;BME280;55457;52.002;5.464;2023-07-13T05:56:24;101318.72;;;24.41;50.66
55187;BME280;55457;52.002;5.464;2023-07-13T05:58:50;101333.97;;;24.42;50.74
55187;BME280;55457;52.002;5.464;2023-07-13T06:01:16;101338.34;;;24.43;50.78
55187;BME280;55457;52.002;5.464;2023-07-13T06:03:42;101335.59;;;24.43;50.71
55187;BME280;55457;52.002;5.464;2023-07-13T06:06:09;101334.56;;;24.44;50.94
55187;BME280;55457;52.002;5.464;2023-07-13T06:08:35;101332.38;;;24.46;50.75
55187;BME280;55457;52.002;5.464;2023-07-13T06:11:03;101335.66;;;24.48;50.76
55187;BME280;55457;52.002;5.464;2023-07-13T06:13:28;101348.22;;;24.49;50.71
55187;BME280;55457;52.002;5.464;2023-07-13T06:15:54;101347.41;;;24.49;50.75
55187;BME280;55457;52.002;5.464;2023-07-13T06:18:19;101350.41;;;24.52;50.78
55187;BME280;55457;52.002;5.464;2023-07-13T06:20:44;101347.69;;;24.52;51.12
55187;BME280;55457;52.002;5.464;2023-07-13T06:23:10;101358.03;;;24.50;51.04
55187;BME280;55457;52.002;5.464;2023-07-13T06:25:35;101367.84;;;24.51;51.15
55187;BME280;55457;52.002;5.464;2023-07-13T06:28:00;101355.84;;;24.52;51.29
55187;BME280;55457;52.002;5.464;2023-07-13T06:30:26;101358.59;;;24.52;51.51
55187;BME280;55457;52.002;5.464;2023-07-13T06:32:52;101360.22;;;24.53;52.02
55187;BME280;55457;52.002;5.464;2023-07-13T06:35:18;101355.84;;;24.52;53.53
55187;BME280;55457;52.002;5.464;2023-07-13T06:37:43;101367.34;;;24.54;53.28
55187;BME280;55457;52.002;5.464;2023-07-13T06:40:09;101366.47;;;24.49;52.90
55187;BME280;55457;52.002;5.464;2023-07-13T06:42:35;101366.72;;;24.47;52.72
55187;BME280;55457;52.002;5.464;2023-07-13T06:45:00;101360.72;;;24.45;52.70
55187;BME280;55457;52.002;5.464;2023-07-13T06:47:26;101363.72;;;24.43;52.61
55187;BME280;55457;52.002;5.464;2023-07-13T06:49:52;101360.66;;;24.40;53.16
55187;BME280;55457;52.002;5.464;2023-07-13T06:52:17;101365.78;;;24.36;53.28
55187;BME280;55457;52.002;5.464;2023-07-13T06:54:43;101372.56;;;24.34;53.17
55187;BME280;55457;52.002;5.464;2023-07-13T06:57:08;101375.06;;;24.35;53.12
55187;BME280;55457;52.002;5.464;2023-07-13T06:59:34;101380.81;;;24.39;53.03
55187;BME280;55457;52.002;5.464;2023-07-13T07:01:59;101377.00;;;24.40;53.10
55187;BME280;55457;52.002;5.464;2023-07-13T07:04:25;101380.00;;;24.38;53.43
55187;BME280;55457;52.002;5.464;2023-07-13T07:06:50;101383.47;;;24.34;53.59
55187;BME280;55457;52.002;5.464;2023-07-13T07:09:15;101380.69;;;24.29;54.06
55187;BME280;55457;52.002;5.464;2023-07-13T07:11:41;101387.59;;;24.14;54.17
55187;BME280;55457;52.002;5.464;2023-07-13T07:14:07;101390.00;;;24.11;54.50
55187;BME280;55457;52.002;5.464;2023-07-13T07:16:33;101398.19;;;24.11;54.48
55187;BME280;55457;52.002;5.464;2023-07-13T07:18:58;101397.94;;;24.12;54.33
55187;BME280;55457;52.002;5.464;2023-07-13T07:21:24;101393.59;;;24.16;54.25
55187;BME280;55457;52.002;5.464;2023-07-13T07:23:51;101400.19;;;24.20;54.10
55187;BME280;55457;52.002;5.464;2023-07-13T07:26:17;101388.16;;;24.16;54.23
55187;BME280;55457;52.002;5.464;2023-07-13T07:28:43;101400.19;;;24.20;54.24
55187;BME280;55457;52.002;5.464;2023-07-13T07:31:09;101400.19;;;24.20;54.29
55187;BME280;55457;52.002;5.464;2023-07-13T07:33:34;101393.66;;;24.21;54.25
55187;BME280;55457;52.002;5.464;2023-07-13T07:36:00;101397.53;;;24.26;54.11
55187;BME280;55457;52.002;5.464;2023-07-13T07:38:25;101396.38;;;24.21;54.41
55187;BME280;55457;52.002;5.464;2023-07-13T07:40:52;101393.59;;;24.16;55.03
55187;BME280;55457;52.002;5.464;2023-07-13T07:43:17;101396.59;;;24.15;55.09
55187;BME280;55457;52.002;5.464;2023-07-13T07:45:44;101394.19;;;24.18;54.82
55187;BME280;55457;52.002;5.464;2023-07-13T07:48:10;101395.28;;;24.17;55.08
55187;BME280;55457;52.002;5.464;2023-07-13T07:50:36;101389.84;;;24.17;54.97
55187;BME280;55457;52.002;5.464;2023-07-13T07:53:02;101391.97;;;24.15;55.26
55187;BME280;55457;52.002;5.464;2023-07-13T07:55:28;101395.28;;;24.17;55.17
55187;BME280;55457;52.002;5.464;2023-07-13T07:57:55;101385.38;;;24.11;55.88
55187;BME280;55457;52.002;5.464;2023-07-13T08:00:21;101386.94;;;24.02;56.16
55187;BME280;55457;52.002;5.464;2023-07-13T08:02:47;101391.78;;;24.00;56.29
55187;BME280;55457;52.002;5.464;2023-07-13T08:05:13;101391.72;;;23.95;56.68
55187;BME280;55457;52.002;5.464;2023-07-13T08:07:39;101389.53;;;23.92;56.57
55187;BME280;55457;52.002;5.464;2023-07-13T08:10:07;101396.06;;;23.91;56.55
55187;BME280;55457;52.002;5.464;2023-07-13T08:12:34;101395.03;;;23.97;55.85
55187;BME280;55457;52.002;5.464;2023-07-13T08:15:00;101375.94;;;23.92;56.54
55187;BME280;55457;52.002;5.464;2023-07-13T08:17:26;101377.88;;;23.97;56.40
55187;BME280;55457;52.002;5.464;2023-07-13T08:19:51;101377.88;;;23.97;56.40
55187;BME280;55457;52.002;5.464;2023-07-13T08:22:17;101385.25;;;24.01;56.03
55187;BME280;55457;52.002;5.464;2023-07-13T08:24:42;101389.59;;;23.97;56.34
55187;BME280;55457;52.002;5.464;2023-07-13T08:27:10;101396.63;;;23.93;55.67
55187;BME280;55457;52.002;5.464;2023-07-13T08:29:36;101402.81;;;23.88;55.98
55187;BME280;55457;52.002;5.464;2023-07-13T08:34:37;101397.38;;;23.88;55.66
55187;BME280;55457;52.002;5.464;2023-07-13T08:37:02;101401.53;;;23.96;55.00
55187;BME280;55457;52.002;5.464;2023-07-13T08:39:30;101413.03;;;23.98;55.58
55187;BME280;55457;52.002;5.464;2023-07-13T08:41:59;101413.34;;;24.02;55.23
55187;BME280;55457;52.002;5.464;2023-07-13T08:44:53;101422.38;;;24.07;55.41
55187;BME280;55457;52.002;5.464;2023-07-13T08:47:22;101412.63;;;24.11;55.16
55187;BME280;55457;52.002;5.464;2023-07-13T08:49:49;101420.84;;;24.16;55.07
55187;BME280;55457;52.002;5.464;2023-07-13T08:52:31;101414.34;;;24.17;55.13
55187;BME280;55457;52.002;5.464;2023-07-13T08:55:04;101413.25;;;24.18;55.38
55187;BME280;55457;52.002;5.464;2023-07-13T08:57:33;101416.28;;;24.22;55.07
55187;BME280;55457;52.002;5.464;2023-07-13T08:59:59;101423.94;;;24.25;54.99
55187;BME280;55457;52.002;5.464;2023-07-13T09:05:03;101419.91;;;24.28;54.88
55187;BME280;55457;52.002;5.464;2023-07-13T09:10:25;101411.47;;;24.29;55.01
55187;BME280;55457;52.002;5.464;2023-07-13T09:15:46;101412.34;;;24.35;54.47
55187;BME280;55457;52.002;5.464;2023-07-13T09:18:38;101412.03;;;24.31;54.13
55187;BME280;55457;52.002;5.464;2023-07-13T09:21:09;101417.13;;;24.23;54.66
55187;BME280;55457;52.002;5.464;2023-07-13T09:23:36;101419.19;;;24.15;54.57
55187;BME280;55457;52.002;5.464;2023-07-13T09:26:04;101412.94;;;24.15;54.75
55187;BME280;55457;52.002;5.464;2023-07-13T09:28:37;101417.06;;;24.17;55.01
55187;BME280;55457;52.002;5.464;2023-07-13T09:31:20;101401.53;;;24.18;54.89
55187;BME280;55457;52.002;5.464;2023-07-13T09:33:48;101411.41;;;24.24;54.88
55187;BME280;55457;52.002;5.464;2023-07-13T09:36:20;101415.50;;;24.27;54.83
55187;BME280;55457;52.002;5.464;2023-07-13T09:38:47;101422.84;;;24.26;54.88
55187;BME280;55457;52.002;5.464;2023-07-13T09:41:26;101417.13;;;24.23;54.00
55187;BME280;55457;52.002;5.464;2023-07-13T09:44:11;101414.91;;;24.19;54.51
55187;BME280;55457;52.002;5.464;2023-07-13T09:46:39;101415.22;;;24.23;54.62
55187;BME280;55457;52.002;5.464;2023-07-13T09:49:10;101414.41;;;24.23;54.83
55187;BME280;55457;52.002;5.464;2023-07-13T09:51:37;101419.84;;;24.23;54.76
55187;BME280;55457;52.002;5.464;2023-07-13T09:54:03;101410.59;;;24.24;54.58
55187;BME280;55457;52.002;5.464;2023-07-13T09:56:29;101413.06;;;24.25;54.25
55187;BME280;55457;52.002;5.464;2023-07-13T09:58:55;101421.16;;;24.20;54.40
55187;BME280;55457;52.002;5.464;2023-07-13T10:01:37;101427.44;;;24.20;54.65
55187;BME280;55457;52.002;5.464;2023-07-13T10:04:13;101438.31;;;24.20;54.42
55187;BME280;55457;52.002;5.464;2023-07-13T10:06:41;101431.28;;;24.25;54.71
55187;BME280;55457;52.002;5.464;2023-07-13T10:09:09;101433.00;;;24.31;54.48
55187;BME280;55457;52.002;5.464;2023-07-13T10:11:35;101438.25;;;24.37;54.50
55187;BME280;55457;52.002;5.464;2023-07-13T10:14:22;101443.00;;;24.47;54.37
55187;BME280;55457;52.002;5.464;2023-07-13T10:16:58;101441.72;;;24.55;54.30
55187;BME280;55457;52.002;5.464;2023-07-13T10:19:29;101432.19;;;24.57;53.78
55187;BME280;55457;52.002;5.464;2023-07-13T10:22:02;101443.94;;;24.58;54.09
55187;BME280;55457;52.002;5.464;2023-07-13T10:24:32;101437.16;;;24.60;54.31
55187;BME280;55457;52.002;5.464;2023-07-13T10:29:35;101446.09;;;24.56;54.14
55187;BME280;55457;52.002;5.464;2023-07-13T10:32:03;101458.38;;;24.58;53.17
55187;BME280;55457;52.002;5.464;2023-07-13T10:34:28;101461.41;;;24.62;53.43
55187;BME280;55457;52.002;5.464;2023-07-13T10:36:54;101458.94;;;24.60;52.12
55187;BME280;55457;52.002;5.464;2023-07-13T10:39:26;101462.50;;;24.61;52.71
55187;BME280;55457;52.002;5.464;2023-07-13T10:41:54;101466.38;;;24.65;51.61
55187;BME280;55457;52.002;5.464;2023-07-13T10:44:31;101464.97;;;24.62;51.49
55187;BME280;55457;52.002;5.464;2023-07-13T10:47:00;101467.69;;;24.62;51.58
55187;BME280;55457;52.002;5.464;2023-07-13T10:49:31;101467.41;;;24.64;51.47
55187;BME280;55457;52.002;5.464;2023-07-13T10:51:57;101472.00;;;24.58;50.42
55187;BME280;55457;52.002;5.464;2023-07-13T10:54:34;101469.03;;;24.60;50.68
55187;BME280;55457;52.002;5.464;2023-07-13T10:57:20;101461.97;;;24.64;51.00
55187;BME280;55457;52.002;5.464;2023-07-13T11:00:13;101463.69;;;24.70;50.68
55187;BME280;55457;52.002;5.464;2023-07-13T11:02:39;101472.72;;;24.76;50.88
55187;BME280;55457;52.002;5.464;2023-07-13T11:05:37;101466.25;;;24.82;50.95
55187;BME280;55457;52.002;5.464;2023-07-13T11:10:55;101467.38;;;24.86;50.17
55187;BME280;55457;52.002;5.464;2023-07-13T11:13:38;101467.88;;;24.83;50.39
55187;BME280;55457;52.002;5.464;2023-07-13T11:18:50;101464.66;;;24.86;50.36
55187;BME280;55457;52.002;5.464;2023-07-13T11:21:18;101461.16;;;24.90;49.94
55187;BME280;55457;52.002;5.464;2023-07-13T11:23:45;101463.94;;;24.95;50.08
55187;BME280;55457;52.002;5.464;2023-07-13T11:26:42;101467.97;;;24.93;50.06
55187;BME280;55457;52.002;5.464;2023-07-13T11:31:58;101470.19;;;24.96;49.08
55187;BME280;55457;52.002;5.464;2023-07-13T11:34:31;101478.97;;;25.03;49.27
55187;BME280;55457;52.002;5.464;2023-07-13T11:37:00;101466.72;;;25.06;49.36
55187;BME280;55457;52.002;5.464;2023-07-13T11:39:35;101464.91;;;25.11;49.36
55187;BME280;55457;52.002;5.464;2023-07-13T11:42:04;101464.31;;;25.09;49.16
55187;BME280;55457;52.002;5.464;2023-07-13T11:44:33;101467.06;;;25.09;49.51
55187;BME280;55457;52.002;5.464;2023-07-13T11:47:08;101468.97;;;25.09;49.79
55187;BME280;55457;52.002;5.464;2023-07-13T11:49:42;101481.28;;;25.11;49.98
55187;BME280;55457;52.002;5.464;2023-07-13T11:52:12;101480.69;;;25.09;49.71
55187;BME280;55457;52.002;5.464;2023-07-13T11:54:53;101486.16;;;25.09;49.75
55187;BME280;55457;52.002;5.464;2023-07-13T11:57:29;101498.97;;;25.09;50.19
55187;BME280;55457;52.002;5.464;2023-07-13T12:00:03;101484.78;;;25.07;50.23
55187;BME280;55457;52.002;5.464;2023-07-13T12:02:32;101479.53;;;25.05;49.56
55187;BME280;55457;52.002;5.464;2023-07-13T12:04:59;101482.25;;;25.05;49.63
55187;BME280;55457;52.002;5.464;2023-07-13T12:07:29;101473.53;;;25.03;49.09
55187;BME280;55457;52.002;5.464;2023-07-13T12:10:26;101474.63;;;25.02;49.35
55187;BME280;55457;52.002;5.464;2023-07-13T12:12:56;101477.41;;;25.07;49.66
55187;BME280;55457;52.002;5.464;2023-07-13T12:15:24;101477.41;;;25.07;49.51
55187;BME280;55457;52.002;5.464;2023-07-13T12:17:52;101480.97;;;25.08;48.76
55187;BME280;55457;52.002;5.464;2023-07-13T12:20:26;101472.50;;;25.09;47.86
55187;BME280;55457;52.002;5.464;2023-07-13T12:22:52;101469.78;;;25.09;47.78
55187;BME280;55457;52.002;5.464;2023-07-13T12:25:19;101468.41;;;25.07;47.88
55187;BME280;55457;52.002;5.464;2023-07-13T12:27:49;101465.47;;;25.13;48.22
55187;BME280;55457;52.002;5.464;2023-07-13T12:30:27;101480.22;;;25.17;47.73
55187;BME280;55457;52.002;5.464;2023-07-13T12:33:06;101478.03;;;25.19;48.32
55187;BME280;55457;52.002;5.464;2023-07-13T12:35:40;101478.03;;;25.19;48.52
55187;BME280;55457;52.002;5.464;2023-07-13T12:38:10;101484.31;;;25.20;47.88
55187;BME280;55457;52.002;5.464;2023-07-13T12:40:36;101481.03;;;25.18;47.55
55187;BME280;55457;52.002;5.464;2023-07-13T12:43:03;101481.31;;;25.16;47.78
55187;BME280;55457;52.002;5.464;2023-07-13T12:45:32;101488.13;;;25.19;47.69
55187;BME280;55457;52.002;5.464;2023-07-13T12:48:04;101490.88;;;25.19;47.74
55187;BME280;55457;52.002;5.464;2023-07-13T12:50:37;101492.50;;;25.20;47.66
55187;BME280;55457;52.002;5.464;2023-07-13T12:53:11;101493.91;;;25.22;47.40
55187;BME280;55457;52.002;5.464;2023-07-13T12:55:46;101486.53;;;25.23;47.17
55187;BME280;55457;52.002;5.464;2023-07-13T12:58:21;101482.41;;;25.20;47.10
55187;BME280;55457;52.002;5.464;2023-07-13T13:00:51;101485.97;;;25.21;46.93
55187;BME280;55457;52.002;5.464;2023-07-13T13:03:26;101486.81;;;25.21;46.76
55187;BME280;55457;52.002;5.464;2023-07-13T13:08:54;101489.00;;;25.24;46.62
55187;BME280;55457;52.002;5.464;2023-07-13T13:11:21;101496.69;;;25.28;45.98
55187;BME280;55457;52.002;5.464;2023-07-13T13:13:48;101499.41;;;25.28;46.10
55187;BME280;55457;52.002;5.464;2023-07-13T13:18:53;101501.59;;;25.31;46.45
55187;BME280;55457;52.002;5.464;2023-07-13T13:21:20;101504.31;;;25.31;46.30